Orlando, Florida
Traffic Map
Current Weather Conditions
Orlando, Florida
Few Clouds
Few Clouds
27°
Feels Like: 29°
Wind Chill: 27° Ceiling: Unl
Heat Index: 29° Visibility: 10mi
Dew Point: 24° Wind: 10mph
Humidity: 85% Direction: 30° (NNE)
Pressure: 30.09in Gusts: 0mph
Raw Report DataKORL 250353Z AUTO 03009KT 10SM FEW055 27/24 A3009 RMK AO2 SLP193 T02670239
Traffic Incident Summary
Active as of:
Severity:
Category:
InformationThere was an issue retrieving the traffic information for this location. Please try a different location or try again shortly.
Advertisements
Track Severe Weather on mobile